sensor_id;sensor_type;location;lat;lon;timestamp;temperature;humidity
11961;DHT22;6040;49.358;11.140;2024-03-23T00:51:58;7.50;99.90
11961;DHT22;6040;49.358;11.140;2024-03-23T00:54:24;9.00;99.90
11961;DHT22;6040;49.358;11.140;2024-03-23T00:56:51;7.30;99.90
11961;DHT22;6040;49.358;11.140;2024-03-23T00:59:17;7.30;99.90
11961;DHT22;6040;49.358;11.140;2024-03-23T01:01:44;7.30;99.90
11961;DHT22;6040;49.358;11.140;2024-03-23T01:04:09;7.10;99.90
11961;DHT22;6040;49.358;11.140;2024-03-23T01:06:36;7.60;99.90
11961;DHT22;6040;49.358;11.140;2024-03-23T01:09:03;7.20;99.90
11961;DHT22;6040;49.358;11.140;2024-03-23T01:11:30;7.10;99.90
11961;DHT22;6040;49.358;11.140;2024-03-23T01:13:56;7.30;99.90
11961;DHT22;6040;49.358;11.140;2024-03-23T01:16:22;6.90;99.90
11961;DHT22;6040;49.358;11.140;2024-03-23T01:18:48;7.00;99.90
11961;DHT22;6040;49.358;11.140;2024-03-23T01:21:15;7.10;99.90
11961;DHT22;6040;49.358;11.140;2024-03-23T01:23:41;6.80;99.90
11961;DHT22;6040;49.358;11.140;2024-03-23T01:26:09;6.70;99.90
11961;DHT22;6040;49.358;11.140;2024-03-23T01:28:35;7.70;99.90
11961;DHT22;6040;49.358;11.140;2024-03-23T01:31:02;6.60;99.90
11961;DHT22;6040;49.358;11.140;2024-03-23T01:33:28;6.70;99.90
11961;DHT22;6040;49.358;11.140;2024-03-23T01:35:55;7.10;99.90
11961;DHT22;6040;49.358;11.140;2024-03-23T01:38:20;6.60;99.90
11961;DHT22;6040;49.358;11.140;2024-03-23T01:40:47;7.00;99.90
11961;DHT22;6040;49.358;11.140;2024-03-23T01:43:14;8.00;99.90
11961;DHT22;6040;49.358;11.140;2024-03-23T01:45:41;6.90;99.90
11961;DHT22;6040;49.358;11.140;2024-03-23T01:48:07;6.70;99.90
11961;DHT22;6040;49.358;11.140;2024-03-23T01:50:34;7.50;99.90
11961;DHT22;6040;49.358;11.140;2024-03-23T01:53:02;6.80;99.90
11961;DHT22;6040;49.358;11.140;2024-03-23T01:55:31;7.00;99.90
11961;DHT22;6040;49.358;11.140;2024-03-23T01:57:57;6.80;99.90
11961;DHT22;6040;49.358;11.140;2024-03-23T02:00:25;6.90;99.90
11961;DHT22;6040;49.358;11.140;2024-03-23T02:02:53;7.00;99.90
11961;DHT22;6040;49.358;11.140;2024-03-23T02:05:20;7.00;99.90
11961;DHT22;6040;49.358;11.140;2024-03-23T02:07:46;7.10;99.90
11961;DHT22;6040;49.358;11.140;2024-03-23T02:10:13;7.70;99.90
11961;DHT22;6040;49.358;11.140;2024-03-23T02:12:38;7.00;99.90
11961;DHT22;6040;49.358;11.140;2024-03-23T02:15:06;7.80;99.90
11961;DHT22;6040;49.358;11.140;2024-03-23T02:17:34;7.20;99.90
11961;DHT22;6040;49.358;11.140;2024-03-23T02:20:02;7.20;99.90
11961;DHT22;6040;49.358;11.140;2024-03-23T02:22:38;7.40;99.90
11961;DHT22;6040;49.358;11.140;2024-03-23T02:25:07;7.30;99.90
11961;DHT22;6040;49.358;11.140;2024-03-23T02:27:33;7.20;99.90
11961;DHT22;6040;49.358;11.140;2024-03-23T02:30:01;7.30;99.90
11961;DHT22;6040;49.358;11.140;2024-03-23T02:32:27;7.60;99.90
11961;DHT22;6040;49.358;11.140;2024-03-23T02:34:54;7.20;99.90
11961;DHT22;6040;49.358;11.140;2024-03-23T02:37:19;7.40;99.90
11961;DHT22;6040;49.358;11.140;2024-03-23T02:39:46;7.60;99.90
11961;DHT22;6040;49.358;11.140;2024-03-23T02:42:13;7.50;99.90
11961;DHT22;6040;49.358;11.140;2024-03-23T02:44:42;7.50;99.90
11961;DHT22;6040;49.358;11.140;2024-03-23T02:47:08;7.50;99.90
11961;DHT22;6040;49.358;11.140;2024-03-23T02:49:35;7.50;99.90
11961;DHT22;6040;49.358;11.140;2024-03-23T02:52:00;7.80;99.90
11961;DHT22;6040;49.358;11.140;2024-03-23T02:54:27;8.10;99.90
11961;DHT22;6040;49.358;11.140;2024-03-23T02:56:53;7.70;99.90
11961;DHT22;6040;49.358;11.140;2024-03-23T02:59:21;7.60;99.90
11961;DHT22;6040;49.358;11.140;2024-03-23T03:01:47;7.70;99.90
11961;DHT22;6040;49.358;11.140;2024-03-23T03:04:14;7.70;99.90
11961;DHT22;6040;49.358;11.140;2024-03-23T03:06:40;8.40;99.90
11961;DHT22;6040;49.358;11.140;2024-03-23T03:09:07;8.60;99.90
11961;DHT22;6040;49.358;11.140;2024-03-23T03:11:32;7.90;99.90
11961;DHT22;6040;49.358;11.140;2024-03-23T03:13:59;7.70;99.90
11961;DHT22;6040;49.358;11.140;2024-03-23T03:16:27;7.90;99.90
11961;DHT22;6040;49.358;11.140;2024-03-23T03:18:54;8.00;99.90
11961;DHT22;6040;49.358;11.140;2024-03-23T03:21:19;8.10;99.90
11961;DHT22;6040;49.358;11.140;2024-03-23T03:23:47;8.60;99.90
11961;DHT22;6040;49.358;11.140;2024-03-23T03:26:15;8.20;99.90
11961;DHT22;6040;49.358;11.140;2024-03-23T03:28:42;8.10;99.90
11961;DHT22;6040;49.358;11.140;2024-03-23T03:31:09;8.20;99.90
11961;DHT22;6040;49.358;11.140;2024-03-23T03:33:37;8.00;99.90
11961;DHT22;6040;49.358;11.140;2024-03-23T03:36:03;8.30;99.90
11961;DHT22;6040;49.358;11.140;2024-03-23T03:38:30;8.30;99.90
11961;DHT22;6040;49.358;11.140;2024-03-23T03:40:56;8.30;99.90
11961;DHT22;6040;49.358;11.140;2024-03-23T03:43:24;8.20;99.90
11961;DHT22;6040;49.358;11.140;2024-03-23T03:45:53;8.90;99.90
11961;DHT22;6040;49.358;11.140;2024-03-23T03:48:19;8.20;99.90
11961;DHT22;6040;49.358;11.140;2024-03-23T03:50:47;8.20;99.90
11961;DHT22;6040;49.358;11.140;2024-03-23T03:53:13;8.30;99.90
11961;DHT22;6040;49.358;11.140;2024-03-23T03:55:40;8.30;99.90
11961;DHT22;6040;49.358;11.140;2024-03-23T03:58:07;8.20;99.90
11961;DHT22;6040;49.358;11.140;2024-03-23T04:00:32;10.20;99.90
11961;DHT22;6040;49.358;11.140;2024-03-23T04:02:59;8.50;99.90
11961;DHT22;6040;49.358;11.140;2024-03-23T04:05:25;8.60;99.90
11961;DHT22;6040;49.358;11.140;2024-03-23T04:07:53;8.70;99.90
11961;DHT22;6040;49.358;11.140;2024-03-23T04:10:19;9.90;99.90
11961;DHT22;6040;49.358;11.140;2024-03-23T04:12:47;8.60;99.90
11961;DHT22;6040;49.358;11.140;2024-03-23T04:15:13;8.80;99.90
11961;DHT22;6040;49.358;11.140;2024-03-23T04:17:40;8.90;99.90
11961;DHT22;6040;49.358;11.140;2024-03-23T04:20:09;9.00;99.90
11961;DHT22;6040;49.358;11.140;2024-03-23T04:22:36;9.00;99.90
11961;DHT22;6040;49.358;11.140;2024-03-23T04:25:04;9.00;99.90
11961;DHT22;6040;49.358;11.140;2024-03-23T04:27:32;9.10;99.90
11961;DHT22;6040;49.358;11.140;2024-03-23T04:29:58;8.90;99.90
11961;DHT22;6040;49.358;11.140;2024-03-23T04:32:26;9.00;99.90
11961;DHT22;6040;49.358;11.140;2024-03-23T04:34:52;8.90;99.90
11961;DHT22;6040;49.358;11.140;2024-03-23T04:37:20;8.90;99.90
11961;DHT22;6040;49.358;11.140;2024-03-23T04:39:46;8.90;99.90
11961;DHT22;6040;49.358;11.140;2024-03-23T04:42:16;8.80;99.90
11961;DHT22;6040;49.358;11.140;2024-03-23T04:44:42;8.90;99.90
11961;DHT22;6040;49.358;11.140;2024-03-23T04:47:10;8.70;99.90
11961;DHT22;6040;49.358;11.140;2024-03-23T04:49:37;8.70;99.90
11961;DHT22;6040;49.358;11.140;2024-03-23T04:52:04;9.20;99.90
11961;DHT22;6040;49.358;11.140;2024-03-23T04:54:31;8.60;99.90
11961;DHT22;6040;49.358;11.140;2024-03-23T04:56:57;8.40;99.90
11961;DHT22;6040;49.358;11.140;2024-03-23T04:59:26;8.30;99.90
11961;DHT22;6040;49.358;11.140;2024-03-23T05:01:52;8.40;99.90
11961;DHT22;6040;49.358;11.140;2024-03-23T05:04:19;8.50;99.90
11961;DHT22;6040;49.358;11.140;2024-03-23T05:06:45;9.10;99.90
11961;DHT22;6040;49.358;11.140;2024-03-23T05:09:11;8.50;99.90
11961;DHT22;6040;49.358;11.140;2024-03-23T05:11:38;8.40;99.90
11961;DHT22;6040;49.358;11.140;2024-03-23T05:14:05;8.40;99.90
11961;DHT22;6040;49.358;11.140;2024-03-23T05:16:32;8.40;99.90
11961;DHT22;6040;49.358;11.140;2024-03-23T05:19:00;8.20;99.90
11961;DHT22;6040;49.358;11.140;2024-03-23T05:21:26;8.10;99.90
11961;DHT22;6040;49.358;11.140;2024-03-23T05:23:54;8.10;99.90
11961;DHT22;6040;49.358;11.140;2024-03-23T05:26:21;8.20;99.90
11961;DHT22;6040;49.358;11.140;2024-03-23T05:28:47;10.00;99.90
11961;DHT22;6040;49.358;11.140;2024-03-23T05:31:22;8.10;99.90
11961;DHT22;6040;49.358;11.140;2024-03-23T05:33:50;8.20;99.90
11961;DHT22;6040;49.358;11.140;2024-03-23T05:36:17;8.60;99.90
11961;DHT22;6040;49.358;11.140;2024-03-23T05:38:44;8.10;99.90
11961;DHT22;6040;49.358;11.140;2024-03-23T05:41:10;8.00;99.90
11961;DHT22;6040;49.358;11.140;2024-03-23T05:43:36;8.40;99.90
11961;DHT22;6040;49.358;11.140;2024-03-23T05:46:03;8.50;99.90
11961;DHT22;6040;49.358;11.140;2024-03-23T05:48:30;8.40;99.90
11961;DHT22;6040;49.358;11.140;2024-03-23T05:50:59;8.70;99.90
11961;DHT22;6040;49.358;11.140;2024-03-23T05:53:25;8.60;99.90
11961;DHT22;6040;49.358;11.140;2024-03-23T05:56:00;9.00;99.90
11961;DHT22;6040;49.358;11.140;2024-03-23T05:58:26;9.30;99.90
11961;DHT22;6040;49.358;11.140;2024-03-23T06:00:57;9.40;99.90
11961;DHT22;6040;49.358;11.140;2024-03-23T06:03:23;11.30;99.90
11961;DHT22;6040;49.358;11.140;2024-03-23T06:05:50;9.90;99.90
11961;DHT22;6040;49.358;11.140;2024-03-23T06:08:18;9.60;99.90
11961;DHT22;6040;49.358;11.140;2024-03-23T06:10:45;9.70;99.90
11961;DHT22;6040;49.358;11.140;2024-03-23T06:13:11;9.50;99.90
11961;DHT22;6040;49.358;11.140;2024-03-23T06:15:38;9.50;99.90
11961;DHT22;6040;49.358;11.140;2024-03-23T06:18:04;9.80;99.90
11961;DHT22;6040;49.358;11.140;2024-03-23T06:20:33;9.70;99.90
11961;DHT22;6040;49.358;11.140;2024-03-23T06:22:59;9.50;99.90
11961;DHT22;6040;49.358;11.140;2024-03-23T06:25:27;9.60;99.90
11961;DHT22;6040;49.358;11.140;2024-03-23T06:27:53;10.40;99.90
11961;DHT22;6040;49.358;11.140;2024-03-23T06:30:20;9.70;99.90
11961;DHT22;6040;49.358;11.140;2024-03-23T06:32:46;9.90;99.90
11961;DHT22;6040;49.358;11.140;2024-03-23T06:35:13;9.80;99.90
11961;DHT22;6040;49.358;11.140;2024-03-23T06:37:38;10.00;99.90
11961;DHT22;6040;49.358;11.140;2024-03-23T06:40:07;10.00;99.90
11961;DHT22;6040;49.358;11.140;2024-03-23T06:42:36;10.00;99.90
11961;DHT22;6040;49.358;11.140;2024-03-23T06:45:04;10.40;99.90
11961;DHT22;6040;49.358;11.140;2024-03-23T06:47:30;10.00;99.90
11961;DHT22;6040;49.358;11.140;2024-03-23T06:49:57;11.40;99.90
11961;DHT22;6040;49.358;11.140;2024-03-23T06:52:23;10.60;99.90
11961;DHT22;6040;49.358;11.140;2024-03-23T06:54:50;10.40;99.90
11961;DHT22;6040;49.358;11.140;2024-03-23T06:57:16;10.20;99.90
11961;DHT22;6040;49.358;11.140;2024-03-23T06:59:44;10.20;99.90
11961;DHT22;6040;49.358;11.140;2024-03-23T07:02:09;10.00;99.90
11961;DHT22;6040;49.358;11.140;2024-03-23T07:04:37;11.50;99.90
11961;DHT22;6040;49.358;11.140;2024-03-23T07:07:05;10.20;99.90
11961;DHT22;6040;49.358;11.140;2024-03-23T07:09:32;10.10;99.90
11961;DHT22;6040;49.358;11.140;2024-03-23T07:11:57;10.50;99.90
11961;DHT22;6040;49.358;11.140;2024-03-23T07:14:24;10.10;99.90
11961;DHT22;6040;49.358;11.140;2024-03-23T07:16:52;10.10;99.90
11961;DHT22;6040;49.358;11.140;2024-03-23T07:19:19;11.70;99.90
11961;DHT22;6040;49.358;11.140;2024-03-23T07:21:45;10.00;99.90
11961;DHT22;6040;49.358;11.140;2024-03-23T07:24:13;10.10;99.90
11961;DHT22;6040;49.358;11.140;2024-03-23T07:26:39;10.00;99.90
11961;DHT22;6040;49.358;11.140;2024-03-23T07:29:06;10.10;99.90
11961;DHT22;6040;49.358;11.140;2024-03-23T07:31:32;10.10;99.90
11961;DHT22;6040;49.358;11.140;2024-03-23T07:34:00;10.30;99.90
11961;DHT22;6040;49.358;11.140;2024-03-23T07:36:26;9.80;99.90
11961;DHT22;6040;49.358;11.140;2024-03-23T07:38:53;10.10;99.90
11961;DHT22;6040;49.358;11.140;2024-03-23T07:41:19;10.40;99.90
11961;DHT22;6040;49.358;11.140;2024-03-23T07:43:47;9.80;99.90
11961;DHT22;6040;49.358;11.140;2024-03-23T07:46:14;10.00;99.90
11961;DHT22;6040;49.358;11.140;2024-03-23T07:48:42;9.90;99.90
11961;DHT22;6040;49.358;11.140;2024-03-23T07:51:10;10.10;99.90
11961;DHT22;6040;49.358;11.140;2024-03-23T07:53:37;11.80;99.90
11961;DHT22;6040;49.358;11.140;2024-03-23T07:56:06;10.10;99.90
11961;DHT22;6040;49.358;11.140;2024-03-23T07:58:33;10.10;99.90
11961;DHT22;6040;49.358;11.140;2024-03-23T08:01:04;10.10;99.90
11961;DHT22;6040;49.358;11.140;2024-03-23T08:03:33;10.10;99.90
11961;DHT22;6040;49.358;11.140;2024-03-23T08:06:06;10.20;99.90
11961;DHT22;6040;49.358;11.140;2024-03-23T08:08:35;11.30;99.90
11961;DHT22;6040;49.358;11.140;2024-03-23T08:11:01;12.00;99.90
11961;DHT22;6040;49.358;11.140;2024-03-23T08:13:29;10.40;99.90
11961;DHT22;6040;49.358;11.140;2024-03-23T08:15:57;10.60;99.90
11961;DHT22;6040;49.358;11.140;2024-03-23T08:18:24;10.60;99.90
11961;DHT22;6040;49.358;11.140;2024-03-23T08:20:56;11.50;99.90
11961;DHT22;6040;49.358;11.140;2024-03-23T08:23:23;10.90;99.90
11961;DHT22;6040;49.358;11.140;2024-03-23T08:25:51;10.70;99.90
11961;DHT22;6040;49.358;11.140;2024-03-23T08:28:17;11.00;99.90
11961;DHT22;6040;49.358;11.140;2024-03-23T08:30:43;11.20;99.90
11961;DHT22;6040;49.358;11.140;2024-03-23T08:33:10;10.40;99.90
11961;DHT22;6040;49.358;11.140;2024-03-23T08:35:36;10.60;99.90
11961;DHT22;6040;49.358;11.140;2024-03-23T08:38:03;10.30;99.90
11961;DHT22;6040;49.358;11.140;2024-03-23T08:40:29;10.00;99.90
11961;DHT22;6040;49.358;11.140;2024-03-23T08:42:57;9.90;99.90
11961;DHT22;6040;49.358;11.140;2024-03-23T08:45:24;9.80;99.90
11961;DHT22;6040;49.358;11.140;2024-03-23T08:47:51;9.80;99.90
11961;DHT22;6040;49.358;11.140;2024-03-23T08:50:17;10.10;99.90
11961;DHT22;6040;49.358;11.140;2024-03-23T08:52:44;9.90;99.90
11961;DHT22;6040;49.358;11.140;2024-03-23T08:55:10;10.40;99.90
11961;DHT22;6040;49.358;11.140;2024-03-23T08:57:36;10.60;99.90
11961;DHT22;6040;49.358;11.140;2024-03-23T09:00:05;11.20;99.90
11961;DHT22;6040;49.358;11.140;2024-03-23T09:02:34;10.70;99.90
11961;DHT22;6040;49.358;11.140;2024-03-23T09:05:00;10.70;99.90
11961;DHT22;6040;49.358;11.140;2024-03-23T09:07:30;11.00;99.90
11961;DHT22;6040;49.358;11.140;2024-03-23T09:09:56;12.90;99.90
11961;DHT22;6040;49.358;11.140;2024-03-23T09:12:23;11.70;99.90
11961;DHT22;6040;49.358;11.140;2024-03-23T09:14:49;12.00;99.90
11961;DHT22;6040;49.358;11.140;2024-03-23T09:17:18;12.40;99.90
11961;DHT22;6040;49.358;11.140;2024-03-23T09:19:44;11.50;99.90
11961;DHT22;6040;49.358;11.140;2024-03-23T09:22:26;11.10;99.90
11961;DHT22;6040;49.358;11.140;2024-03-23T09:24:51;11.00;99.90
11961;DHT22;6040;49.358;11.140;2024-03-23T09:27:18;10.90;99.90
11961;DHT22;6040;49.358;11.140;2024-03-23T09:29:44;11.40;99.90
11961;DHT22;6040;49.358;11.140;2024-03-23T09:32:11;12.10;99.90
11961;DHT22;6040;49.358;11.140;2024-03-23T09:34:38;12.50;99.90
11961;DHT22;6040;49.358;11.140;2024-03-23T09:37:05;11.80;99.90
11961;DHT22;6040;49.358;11.140;2024-03-23T09:39:31;11.30;99.90
11961;DHT22;6040;49.358;11.140;2024-03-23T09:41:58;10.90;99.90
11961;DHT22;6040;49.358;11.140;2024-03-23T09:44:24;10.90;99.90
11961;DHT22;6040;49.358;11.140;2024-03-23T09:46:54;10.60;99.90
11961;DHT22;6040;49.358;11.140;2024-03-23T09:49:20;12.10;99.90
11961;DHT22;6040;49.358;11.140;2024-03-23T09:51:49;11.50;99.90
11961;DHT22;6040;49.358;11.140;2024-03-23T09:54:14;11.70;99.90
11961;DHT22;6040;49.358;11.140;2024-03-23T09:56:42;12.10;99.90
11961;DHT22;6040;49.358;11.140;2024-03-23T09:59:07;11.90;99.90
11961;DHT22;6040;49.358;11.140;2024-03-23T10:01:35;12.10;99.90
11961;DHT22;6040;49.358;11.140;2024-03-23T10:04:01;11.90;99.90
11961;DHT22;6040;49.358;11.140;2024-03-23T10:06:29;11.40;99.90
11961;DHT22;6040;49.358;11.140;2024-03-23T10:08:56;11.50;99.90
11961;DHT22;6040;49.358;11.140;2024-03-23T10:11:22;10.90;99.90
11961;DHT22;6040;49.358;11.140;2024-03-23T10:13:48;11.00;99.90
11961;DHT22;6040;49.358;11.140;2024-03-23T10:16:22;11.30;99.90
11961;DHT22;6040;49.358;11.140;2024-03-23T10:18:49;11.10;99.90
11961;DHT22;6040;49.358;11.140;2024-03-23T10:21:16;11.40;99.90
11961;DHT22;6040;49.358;11.140;2024-03-23T10:23:44;10.60;99.90
11961;DHT22;6040;49.358;11.140;2024-03-23T10:26:17;11.20;99.90
11961;DHT22;6040;49.358;11.140;2024-03-23T10:28:57;10.40;99.90
11961;DHT22;6040;49.358;11.140;2024-03-23T10:31:26;10.40;99.90
11961;DHT22;6040;49.358;11.140;2024-03-23T10:33:52;10.10;99.90
11961;DHT22;6040;49.358;11.140;2024-03-23T10:36:20;11.50;99.90
11961;DHT22;6040;49.358;11.140;2024-03-23T10:38:46;10.20;99.90
11961;DHT22;6040;49.358;11.140;2024-03-23T10:41:15;11.50;99.90
11961;DHT22;6040;49.358;11.140;2024-03-23T10:43:43;10.10;99.90
11961;DHT22;6040;49.358;11.140;2024-03-23T10:46:11;10.50;99.90
11961;DHT22;6040;49.358;11.140;2024-03-23T10:48:37;9.80;99.90
11961;DHT22;6040;49.358;11.140;2024-03-23T10:51:05;10.10;99.90
11961;DHT22;6040;49.358;11.140;2024-03-23T10:53:33;11.00;99.90
11961;DHT22;6040;49.358;11.140;2024-03-23T10:56:00;9.80;99.90
11961;DHT22;6040;49.358;11.140;2024-03-23T10:58:30;11.40;99.90
11961;DHT22;6040;49.358;11.140;2024-03-23T11:00:57;9.80;99.90
11961;DHT22;6040;49.358;11.140;2024-03-23T11:03:31;9.80;99.90
11961;DHT22;6040;49.358;11.140;2024-03-23T11:05:58;10.40;99.90
11961;DHT22;6040;49.358;11.140;2024-03-23T11:08:35;10.90;99.90
11961;DHT22;6040;49.358;11.140;2024-03-23T11:11:16;11.20;99.90
11961;DHT22;6040;49.358;11.140;2024-03-23T11:13:44;11.90;99.90
11961;DHT22;6040;49.358;11.140;2024-03-23T11:16:15;12.30;99.90
11961;DHT22;6040;49.358;11.140;2024-03-23T11:18:41;12.70;99.90
11961;DHT22;6040;49.358;11.140;2024-03-23T11:21:09;12.80;99.90
11961;DHT22;6040;49.358;11.140;2024-03-23T11:23:35;12.80;99.90
11961;DHT22;6040;49.358;11.140;2024-03-23T11:26:02;12.70;99.90
11961;DHT22;6040;49.358;11.140;2024-03-23T11:28:30;12.90;99.90
11961;DHT22;6040;49.358;11.140;2024-03-23T11:30:58;13.40;99.90
11961;DHT22;6040;49.358;11.140;2024-03-23T11:33:24;13.10;99.90
11961;DHT22;6040;49.358;11.140;2024-03-23T11:35:51;12.80;99.90
11961;DHT22;6040;49.358;11.140;2024-03-23T11:38:18;12.20;99.90
11961;DHT22;6040;49.358;11.140;2024-03-23T11:40:46;12.80;99.90
11961;DHT22;6040;49.358;11.140;2024-03-23T11:43:13;12.50;99.90
11961;DHT22;6040;49.358;11.140;2024-03-23T11:45:43;13.10;99.90
11961;DHT22;6040;49.358;11.140;2024-03-23T11:48:11;13.20;99.90
11961;DHT22;6040;49.358;11.140;2024-03-23T11:50:40;13.40;99.90
11961;DHT22;6040;49.358;11.140;2024-03-23T11:53:16;13.20;99.90
11961;DHT22;6040;49.358;11.140;2024-03-23T11:55:47;12.80;99.90
11961;DHT22;6040;49.358;11.140;2024-03-23T11:58:14;11.80;99.90
11961;DHT22;6040;49.358;11.140;2024-03-23T12:00:41;11.50;99.90
11961;DHT22;6040;49.358;11.140;2024-03-23T12:03:07;11.40;99.90
11961;DHT22;6040;49.358;11.140;2024-03-23T12:05:37;12.50;99.90
11961;DHT22;6040;49.358;11.140;2024-03-23T12:08:21;12.30;99.90
11961;DHT22;6040;49.358;11.140;2024-03-23T12:10:50;12.40;99.90
11961;DHT22;6040;49.358;11.140;2024-03-23T12:13:20;12.50;99.90
11961;DHT22;6040;49.358;11.140;2024-03-23T12:15:49;12.30;99.90
11961;DHT22;6040;49.358;11.140;2024-03-23T12:18:15;12.40;99.90
11961;DHT22;6040;49.358;11.140;2024-03-23T12:20:43;12.60;99.90
11961;DHT22;6040;49.358;11.140;2024-03-23T12:23:10;12.50;99.90
11961;DHT22;6040;49.358;11.140;2024-03-23T12:25:38;12.20;99.90
11961;DHT22;6040;49.358;11.140;2024-03-23T12:28:05;12.50;99.90
11961;DHT22;6040;49.358;11.140;2024-03-23T12:30:34;12.30;99.90
11961;DHT22;6040;49.358;11.140;2024-03-23T12:33:00;12.30;99.90
11961;DHT22;6040;49.358;11.140;2024-03-23T12:35:27;12.20;99.90
11961;DHT22;6040;49.358;11.140;2024-03-23T12:37:54;11.90;99.90
11961;DHT22;6040;49.358;11.140;2024-03-23T12:40:21;12.10;99.80
11961;DHT22;6040;49.358;11.140;2024-03-23T12:42:47;11.70;99.90
11961;DHT22;6040;49.358;11.140;2024-03-23T12:45:14;11.50;99.90
11961;DHT22;6040;49.358;11.140;2024-03-23T12:47:39;11.30;98.80
11961;DHT22;6040;49.358;11.140;2024-03-23T12:50:07;11.40;98.10
11961;DHT22;6040;49.358;11.140;2024-03-23T12:52:33;11.90;97.70
11961;DHT22;6040;49.358;11.140;2024-03-23T12:55:02;12.30;96.80
11961;DHT22;6040;49.358;11.140;2024-03-23T12:57:29;12.60;95.70
11961;DHT22;6040;49.358;11.140;2024-03-23T12:59:55;12.70;95.20
11961;DHT22;6040;49.358;11.140;2024-03-23T13:02:22;12.80;95.00
11961;DHT22;6040;49.358;11.140;2024-03-23T13:04:50;12.60;94.90
11961;DHT22;6040;49.358;11.140;2024-03-23T13:07:16;12.00;94.70
11961;DHT22;6040;49.358;11.140;2024-03-23T13:09:43;11.80;96.50
11961;DHT22;6040;49.358;11.140;2024-03-23T13:12:10;11.40;95.60
11961;DHT22;6040;49.358;11.140;2024-03-23T13:14:38;11.70;95.60
11961;DHT22;6040;49.358;11.140;2024-03-23T13:17:05;11.80;97.50
11961;DHT22;6040;49.358;11.140;2024-03-23T13:19:32;11.70;96.10
11961;DHT22;6040;49.358;11.140;2024-03-23T13:21:58;11.90;95.90
11961;DHT22;6040;49.358;11.140;2024-03-23T13:24:26;12.20;95.80
11961;DHT22;6040;49.358;11.140;2024-03-23T13:26:53;13.20;96.90
11961;DHT22;6040;49.358;11.140;2024-03-23T13:29:22;12.00;94.70
11961;DHT22;6040;49.358;11.140;2024-03-23T13:31:48;12.10;94.60
11961;DHT22;6040;49.358;11.140;2024-03-23T13:34:17;12.50;94.80
11961;DHT22;6040;49.358;11.140;2024-03-23T13:36:43;11.90;94.70
11961;DHT22;6040;49.358;11.140;2024-03-23T13:39:10;11.80;95.10
11961;DHT22;6040;49.358;11.140;2024-03-23T13:41:38;12.30;94.70
11961;DHT22;6040;49.358;11.140;2024-03-23T13:44:05;12.80;94.40
11961;DHT22;6040;49.358;11.140;2024-03-23T13:46:32;12.40;94.70
11961;DHT22;6040;49.358;11.140;2024-03-23T13:48:59;13.20;94.60
11961;DHT22;6040;49.358;11.140;2024-03-23T13:51:26;12.70;95.20
11961;DHT22;6040;49.358;11.140;2024-03-23T13:53:53;12.50;94.50
11961;DHT22;6040;49.358;11.140;2024-03-23T13:56:19;12.60;94.60
11961;DHT22;6040;49.358;11.140;2024-03-23T13:58:46;12.90;94.80
11961;DHT22;6040;49.358;11.140;2024-03-23T14:01:14;12.20;94.40
11961;DHT22;6040;49.358;11.140;2024-03-23T14:03:42;12.10;94.30
11961;DHT22;6040;49.358;11.140;2024-03-23T14:06:09;12.00;94.40
11961;DHT22;6040;49.358;11.140;2024-03-23T14:08:36;12.30;95.20
11961;DHT22;6040;49.358;11.140;2024-03-23T14:11:04;13.50;94.80
11961;DHT22;6040;49.358;11.140;2024-03-23T14:13:31;12.00;94.80
11961;DHT22;6040;49.358;11.140;2024-03-23T14:15:57;12.70;95.20
11961;DHT22;6040;49.358;11.140;2024-03-23T14:18:24;12.40;96.10
11961;DHT22;6040;49.358;11.140;2024-03-23T14:20:56;12.70;94.60
11961;DHT22;6040;49.358;11.140;2024-03-23T14:23:25;12.50;95.10
11961;DHT22;6040;49.358;11.140;2024-03-23T14:25:53;12.60;94.90
11961;DHT22;6040;49.358;11.140;2024-03-23T14:28:19;12.90;94.50
11961;DHT22;6040;49.358;11.140;2024-03-23T14:30:45;12.70;94.40
11961;DHT22;6040;49.358;11.140;2024-03-23T14:33:12;12.40;94.20
11961;DHT22;6040;49.358;11.140;2024-03-23T14:35:38;12.80;94.10
11961;DHT22;6040;49.358;11.140;2024-03-23T14:38:06;12.50;94.30
11961;DHT22;6040;49.358;11.140;2024-03-23T14:40:33;12.50;94.60
11961;DHT22;6040;49.358;11.140;2024-03-23T14:43:00;12.30;93.70
11961;DHT22;6040;49.358;11.140;2024-03-23T14:45:25;12.20;95.20
11961;DHT22;6040;49.358;11.140;2024-03-23T14:47:52;12.00;94.20
11961;DHT22;6040;49.358;11.140;2024-03-23T14:50:18;13.50;96.00
11961;DHT22;6040;49.358;11.140;2024-03-23T14:52:47;13.70;94.70
11961;DHT22;6040;49.358;11.140;2024-03-23T14:55:14;11.60;93.90
11961;DHT22;6040;49.358;11.140;2024-03-23T14:57:42;11.60;93.70
11961;DHT22;6040;49.358;11.140;2024-03-23T15:00:09;11.60;93.60
11961;DHT22;6040;49.358;11.140;2024-03-23T15:02:37;11.50;93.60
11961;DHT22;6040;49.358;11.140;2024-03-23T15:05:04;11.30;94.00
11961;DHT22;6040;49.358;11.140;2024-03-23T15:07:34;11.30;93.80
11961;DHT22;6040;49.358;11.140;2024-03-23T15:10:00;11.40;94.70
11961;DHT22;6040;49.358;11.140;2024-03-23T15:12:28;11.00;94.30
11961;DHT22;6040;49.358;11.140;2024-03-23T15:14:54;11.50;95.10
11961;DHT22;6040;49.358;11.140;2024-03-23T15:17:21;10.60;95.00
11961;DHT22;6040;49.358;11.140;2024-03-23T15:19:47;11.50;98.20
11961;DHT22;6040;49.358;11.140;2024-03-23T15:22:14;9.90;99.90
11961;DHT22;6040;49.358;11.140;2024-03-23T15:24:40;9.30;99.90
11961;DHT22;6040;49.358;11.140;2024-03-23T15:27:06;8.90;99.90
11961;DHT22;6040;49.358;11.140;2024-03-23T15:29:35;8.50;99.90
11961;DHT22;6040;49.358;11.140;2024-03-23T15:32:04;9.70;99.90
11961;DHT22;6040;49.358;11.140;2024-03-23T15:34:30;8.70;99.90
11961;DHT22;6040;49.358;11.140;2024-03-23T15:36:57;8.80;99.90
11961;DHT22;6040;49.358;11.140;2024-03-23T15:39:22;8.90;99.90
11961;DHT22;6040;49.358;11.140;2024-03-23T15:41:49;9.20;99.90
11961;DHT22;6040;49.358;11.140;2024-03-23T15:44:15;9.20;99.90
11961;DHT22;6040;49.358;11.140;2024-03-23T15:46:43;9.20;99.90
11961;DHT22;6040;49.358;11.140;2024-03-23T15:49:10;9.30;99.90
11961;DHT22;6040;49.358;11.140;2024-03-23T15:51:37;9.20;99.90
11961;DHT22;6040;49.358;11.140;2024-03-23T15:54:04;9.00;99.90
11961;DHT22;6040;49.358;11.140;2024-03-23T15:56:31;9.10;99.90
11961;DHT22;6040;49.358;11.140;2024-03-23T15:58:57;10.10;99.90
11961;DHT22;6040;49.358;11.140;2024-03-23T16:01:31;10.30;99.90
11961;DHT22;6040;49.358;11.140;2024-03-23T16:04:00;9.10;99.90
11961;DHT22;6040;49.358;11.140;2024-03-23T16:06:27;9.20;99.90
11961;DHT22;6040;49.358;11.140;2024-03-23T16:08:53;8.90;99.90
11961;DHT22;6040;49.358;11.140;2024-03-23T16:11:20;11.00;99.90
11961;DHT22;6040;49.358;11.140;2024-03-23T16:13:46;8.80;99.90
11961;DHT22;6040;49.358;11.140;2024-03-23T16:16:13;8.90;99.90
11961;DHT22;6040;49.358;11.140;2024-03-23T16:18:39;8.80;99.90
11961;DHT22;6040;49.358;11.140;2024-03-23T16:21:07;9.50;99.90
11961;DHT22;6040;49.358;11.140;2024-03-23T16:23:34;8.80;99.90
11961;DHT22;6040;49.358;11.140;2024-03-23T16:26:03;8.70;99.90
11961;DHT22;6040;49.358;11.140;2024-03-23T16:28:30;8.60;99.90